EGPH - Edinburgh Airport
Distance from station: E 5mi, 14km
Updated: 02/23/2018 7:50am
Few Clouds
Few Clouds
 Wind from SSE
Wind: SSE 10 mph , 17 km/h
Temperature: 41°F , 5°C
Wind Chill: 35°F , 2°C
Dew Point: 28°F , -2°C
Humidity: 61%
Barometer: 30.15 inHg , 1021 hPa
Clouds: Few Clouds
Visibility: 6 miles , 10 km
Cloud details: Few Clouds 3600 ft
2018/02/23 15:50 EGPH 231550Z 15009KT 130V200 9999 FEW036 05/M02 Q1021